Time;durP1;ratioP1;P1;durP2;ratioP2;P2;SDS_P1;SDS_P2;PMS_P1;PMS_P2;Temp;Humidity;BMP_temperature;BMP_pressure;BME280_temperature;BME280_humidity;BME280_pressure;Samples;Min_cycle;Max_cycle;Signal;HPM_P1;HPM_P2
2021/08/01 00:01:28;;;;;;;11.43;8.90;;;;;;;-140.05;100.00;61859.38;5011061;28;20684;-67
2021/08/01 00:03:55;;;;;;;19.37;11.37;;;;;;;-140.05;100.00;61859.38;5010406;28;20688;-67
2021/08/01 00:06:25;;;;;;;16.90;11.20;;;;;;;-140.05;100.00;61859.38;5026831;28;20286;-67
2021/08/01 00:08:51;;;;;;;16.73;11.37;;;;;;;-140.05;100.00;61859.38;5030168;28;20197;-67
2021/08/01 00:11:18;;;;;;;14.77;11.47;;;;;;;-140.05;100.00;61859.38;5015308;28;20202;-67
2021/08/01 00:13:45;;;;;;;19.23;12.60;;;;;;;-140.05;100.00;61859.38;5030027;28;20192;-67
2021/08/01 00:16:13;;;;;;;20.87;13.13;;;;;;;-140.05;100.00;61859.38;5015733;28;20775;-67
2021/08/01 00:18:40;;;;;;;23.40;13.97;;;;;;;-140.05;100.00;61859.38;5016541;28;20193;-66
2021/08/01 00:21:08;;;;;;;20.57;13.70;;;;;;;-140.05;100.00;61859.38;5029693;28;20236;-66
2021/08/01 00:23:35;;;;;;;22.43;14.00;;;;;;;-140.05;100.00;61859.38;5029250;28;20668;-66
2021/08/01 00:26:02;;;;;;;18.13;15.03;;;;;;;-140.05;100.00;61859.38;5029622;28;20595;-67
2021/08/01 00:28:29;;;;;;;19.43;14.07;;;;;;;-140.05;100.00;61859.38;5026426;28;20190;-66
2021/08/01 00:30:59;;;;;;;21.83;13.63;;;;;;;-140.05;100.00;61859.38;5021461;28;20581;-66
2021/08/01 00:33:26;;;;;;;20.50;15.87;;;;;;;-140.05;100.00;61859.38;5033663;28;20292;-66
2021/08/01 00:35:53;;;;;;;23.07;14.80;;;;;;;-140.05;100.00;61859.38;5032830;28;20213;-66
2021/08/01 00:38:20;;;;;;;22.17;15.73;;;;;;;-140.05;100.00;61859.38;5033509;28;20193;-67
2021/08/01 00:40:47;;;;;;;24.97;17.33;;;;;;;-140.05;100.00;61859.38;5026914;28;20745;-66
2021/08/01 00:43:15;;;;;;;25.03;16.07;;;;;;;-140.05;100.00;61859.38;5024329;28;20942;-66
2021/08/01 00:45:42;;;;;;;23.50;17.83;;;;;;;-140.05;100.00;61859.38;5032865;28;20705;-66
2021/08/01 00:48:12;;;;;;;25.07;17.30;;;;;;;-140.05;100.00;61859.38;5032345;28;20519;-66
2021/08/01 00:50:45;;;;;;;27.07;17.97;;;;;;;-140.05;100.00;61859.38;5031211;28;20201;-66
2021/08/01 00:53:12;;;;;;;24.40;17.50;;;;;;;-140.05;100.00;61859.38;5026708;28;20660;-67
2021/08/01 00:55:40;;;;;;;29.07;17.47;;;;;;;-140.05;100.00;61859.38;5011740;28;20279;-68
2021/08/01 00:58:08;;;;;;;29.13;17.57;;;;;;;-140.05;100.00;61859.38;5027584;28;20198;-67
2021/08/01 01:03:17;;;;;;;23.97;17.57;;;;;;;-140.05;100.00;61859.38;5011922;28;20198;-66
2021/08/01 01:05:56;;;;;;;27.00;18.13;;;;;;;-140.05;100.00;61859.38;5024429;28;20208;-67
2021/08/01 01:09:08;;;;;;;27.67;18.87;;;;;;;-140.05;100.00;61859.38;5031339;28;20574;-67
2021/08/01 01:11:59;;;;;;;24.03;18.50;;;;;;;-140.05;100.00;61859.38;5012823;28;20205;-67
2021/08/01 01:14:29;;;;;;;29.20;18.87;;;;;;;-140.05;100.00;61859.38;5025149;28;20609;-67
2021/08/01 01:17:02;;;;;;;24.10;18.30;;;;;;;-140.05;100.00;61859.38;5031627;28;20284;-66
2021/08/01 01:19:48;;;;;;;27.43;19.10;;;;;;;-140.05;100.00;61859.38;5031488;28;20232;-66
2021/08/01 01:22:54;;;;;;;22.53;17.73;;;;;;;-140.05;100.00;61859.38;5019394;28;20201;-66
2021/08/01 01:25:49;;;;;;;26.87;18.13;;;;;;;-140.05;100.00;61859.38;5023865;28;20235;-66
2021/08/01 01:28:42;;;;;;;23.33;18.43;;;;;;;-140.05;100.00;61859.38;5018700;28;20285;-67
2021/08/01 01:31:25;;;;;;;28.30;17.93;;;;;;;-140.05;100.00;61859.38;5030378;28;20203;-68
2021/08/01 01:34:12;;;;;;;25.20;17.73;;;;;;;-140.05;100.00;61859.38;5025820;28;20589;-66
2021/08/01 01:36:45;;;;;;;24.33;17.07;;;;;;;-140.05;100.00;61859.38;5041258;28;20193;-66
2021/08/01 01:39:15;;;;;;;24.47;17.53;;;;;;;-140.05;100.00;61859.38;5023761;28;20239;-67
2021/08/01 01:42:01;;;;;;;28.63;18.83;;;;;;;-140.05;100.00;61859.38;5028170;28;20310;-65
2021/08/01 01:44:43;;;;;;;34.20;20.27;;;;;;;-140.05;100.00;61859.38;5030222;28;20200;-67
2021/08/01 01:47:13;;;;;;;34.27;20.53;;;;;;;-140.05;100.00;61859.38;5031958;28;20275;-67
2021/08/01 01:49:42;;;;;;;28.97;18.43;;;;;;;-140.05;100.00;61859.38;5013489;28;20210;-66
2021/08/01 01:52:16;;;;;;;35.07;20.93;;;;;;;-140.05;100.00;61859.38;5031059;28;20200;-67
2021/08/01 01:54:53;;;;;;;25.63;18.50;;;;;;;-140.05;100.00;61859.38;5030450;28;20320;-67
2021/08/01 01:57:21;;;;;;;29.93;18.83;;;;;;;-140.05;100.00;61859.38;5030900;28;20745;-67
2021/08/01 01:59:48;;;;;;;30.63;19.13;;;;;;;-140.05;100.00;61859.38;5029911;28;20208;-66
2021/08/01 02:02:17;;;;;;;25.80;19.13;;;;;;;-140.05;100.00;61859.38;5032368;28;20209;-67
2021/08/01 02:04:49;;;;;;;26.20;17.27;;;;;;;-140.05;100.00;61859.38;5029988;28;20572;-66
2021/08/01 02:07:37;;;;;;;23.13;16.50;;;;;;;-140.05;100.00;61859.38;5032250;28;20211;-67
2021/08/01 02:10:34;;;;;;;20.83;16.27;;;;;;;-140.05;100.00;61859.38;5022366;28;20239;-66
2021/08/01 02:13:05;;;;;;;22.53;14.93;;;;;;;-140.05;100.00;61859.38;5021504;28;20217;-67
2021/08/01 02:15:54;;;;;;;20.57;15.57;;;;;;;-140.05;100.00;61859.38;5035326;28;20201;-67
2021/08/01 02:18:34;;;;;;;21.30;14.80;;;;;;;-140.05;100.00;61859.38;5032718;28;20197;-67
2021/08/01 02:21:03;;;;;;;19.63;14.33;;;;;;;-140.05;100.00;61859.38;5034100;28;20204;-67
2021/08/01 02:23:59;;;;;;;20.90;14.37;;;;;;;-140.05;100.00;61859.38;5035743;28;20201;-67
2021/08/01 02:26:28;;;;;;;26.23;14.70;;;;;;;-140.05;100.00;61859.38;5019282;28;20649;-68
2021/08/01 02:28:56;;;;;;;22.30;15.50;;;;;;;-140.05;100.00;61859.38;5031867;28;20207;-67
2021/08/01 02:31:24;;;;;;;20.20;13.93;;;;;;;-140.05;100.00;61859.38;5031844;28;20215;-67
2021/08/01 02:33:52;;;;;;;17.90;14.40;;;;;;;-140.05;100.00;61859.38;5017523;28;20197;-67
2021/08/01 02:36:24;;;;;;;19.30;13.73;;;;;;;-140.05;100.00;61859.38;5029517;28;20212;-66
2021/08/01 02:38:55;;;;;;;17.30;14.23;;;;;;;-140.05;100.00;61859.38;5015791;28;20288;-67
2021/08/01 02:41:36;;;;;;;19.37;13.33;;;;;;;-140.05;100.00;61859.38;5031046;28;20201;-66
2021/08/01 02:44:19;;;;;;;24.57;13.93;;;;;;;-140.05;100.00;61859.38;5029464;28;20228;-66
2021/08/01 02:46:47;;;;;;;22.23;13.73;;;;;;;-140.05;100.00;61859.38;5030399;28;20286;-67
2021/08/01 02:49:22;;;;;;;17.93;11.77;;;;;;;-140.05;100.00;61859.38;5028663;28;20206;-67
2021/08/01 02:51:53;;;;;;;21.27;13.37;;;;;;;-140.05;100.00;61859.38;5028922;28;20197;-66
2021/08/01 02:54:22;;;;;;;15.87;13.17;;;;;;;-140.05;100.00;61859.38;5016748;28;20264;-68
2021/08/01 02:56:56;;;;;;;19.47;12.60;;;;;;;-140.05;100.00;61859.38;5029359;28;20273;-67
2021/08/01 02:59:25;;;;;;;17.37;12.80;;;;;;;-140.05;100.00;61859.38;5030691;28;20209;-67
2021/08/01 03:01:56;;;;;;;17.60;12.57;;;;;;;-140.05;100.00;61859.38;5030167;28;20259;-67
2021/08/01 03:04:27;;;;;;;14.40;11.57;;;;;;;-140.05;100.00;61859.38;5015972;28;20220;-66
2021/08/01 03:06:54;;;;;;;19.97;13.37;;;;;;;-140.05;100.00;61859.38;5023181;28;20220;-67
2021/08/01 03:09:21;;;;;;;16.57;11.87;;;;;;;-140.05;100.00;61859.38;5023188;28;20255;-67
2021/08/01 03:11:49;;;;;;;20.83;12.13;;;;;;;-140.05;100.00;61859.38;5028548;28;20209;-67
2021/08/01 03:14:15;;;;;;;16.87;11.30;;;;;;;-140.05;100.00;61859.38;5028878;28;20712;-66
2021/08/01 03:16:42;;;;;;;19.40;11.23;;;;;;;-140.05;100.00;61859.38;5025256;28;20592;-67
2021/08/01 03:19:12;;;;;;;20.90;11.17;;;;;;;-140.05;100.00;61859.38;5019665;28;20675;-67
2021/08/01 03:21:41;;;;;;;15.60;11.30;;;;;;;-140.05;100.00;61859.38;5030017;28;20197;-67
2021/08/01 03:24:18;;;;;;;17.63;10.03;;;;;;;-140.05;100.00;61859.38;5029219;28;20233;-67
2021/08/01 03:26:52;;;;;;;13.63;10.87;;;;;;;-140.05;100.00;61859.38;5015813;28;20220;-67
2021/08/01 03:29:19;;;;;;;19.60;11.60;;;;;;;-140.05;100.00;61859.38;5020411;28;20817;-67
2021/08/01 03:31:46;;;;;;;12.73;11.33;;;;;;;-140.05;100.00;61859.38;5024576;28;20667;-67
2021/08/01 03:34:13;;;;;;;18.67;11.47;;;;;;;-140.05;100.00;61859.38;5028898;28;20684;-67
2021/08/01 03:36:40;;;;;;;15.43;11.13;;;;;;;-140.05;100.00;61859.38;5014715;28;20205;-67
2021/08/01 03:39:20;;;;;;;24.73;11.97;;;;;;;-140.05;100.00;61859.38;5030456;28;20193;-66
2021/08/01 03:41:58;;;;;;;18.60;11.70;;;;;;;-140.05;100.00;61859.38;5028205;28;20201;-67
2021/08/01 03:44:27;;;;;;;19.00;11.67;;;;;;;-140.05;100.00;61859.38;5028977;28;20205;-67
2021/08/01 03:46:54;;;;;;;16.47;11.73;;;;;;;-140.05;100.00;61859.38;5014903;28;20692;-67
2021/08/01 03:49:21;;;;;;;18.47;11.60;;;;;;;-140.05;100.00;61859.38;5026822;28;20213;-67
2021/08/01 03:51:48;;;;;;;15.73;11.47;;;;;;;-140.05;100.00;61859.38;5029618;28;20200;-68
2021/08/01 03:54:15;;;;;;;19.23;11.63;;;;;;;-140.05;100.00;61859.38;5030113;28;20205;-66
2021/08/01 03:56:43;;;;;;;18.50;12.63;;;;;;;-140.05;100.00;61859.38;5029935;28;20296;-67
2021/08/01 03:59:11;;;;;;;15.00;12.10;;;;;;;-140.05;100.00;61859.38;5030287;28;20209;-66
2021/08/01 04:01:38;;;;;;;17.23;11.77;;;;;;;-140.05;100.00;61859.38;5009832;28;20304;-66
2021/08/01 04:04:06;;;;;;;16.47;11.47;;;;;;;-140.05;100.00;61859.38;5023653;28;20694;-68
2021/08/01 04:06:33;;;;;;;15.43;11.33;;;;;;;-140.05;100.00;61859.38;5019112;28;20240;-67
2021/08/01 04:09:04;;;;;;;15.77;11.53;;;;;;;-140.05;100.00;61859.38;5033879;28;20203;-67
2021/08/01 04:11:32;;;;;;;21.20;11.87;;;;;;;-140.05;100.00;61859.38;5019400;28;20201;-66
2021/08/01 04:14:00;;;;;;;14.83;12.37;;;;;;;-140.05;100.00;61859.38;5033921;28;20205;-67
2021/08/01 04:16:27;;;;;;;19.10;12.37;;;;;;;-140.05;100.00;61859.38;5033481;28;20208;-67
2021/08/01 04:18:54;;;;;;;17.73;12.00;;;;;;;-140.05;100.00;61859.38;5033491;28;20209;-68
2021/08/01 04:21:21;;;;;;;18.17;11.87;;;;;;;-140.05;100.00;61859.38;5018904;28;20675;-67
2021/08/01 04:23:48;;;;;;;20.23;12.73;;;;;;;-140.05;100.00;61859.38;5014108;28;20264;-67
2021/08/01 04:26:15;;;;;;;18.50;12.67;;;;;;;-140.05;100.00;61859.38;5026223;28;20236;-67
2021/08/01 04:28:43;;;;;;;17.97;12.20;;;;;;;-140.05;100.00;61859.38;5028999;28;20201;-67
2021/08/01 04:31:09;;;;;;;16.03;12.80;;;;;;;-140.05;100.00;61859.38;5024451;28;20679;-68
2021/08/01 04:33:36;;;;;;;17.13;11.67;;;;;;;-140.05;100.00;61859.38;5015854;28;20201;-67
2021/08/01 04:36:04;;;;;;;19.30;13.27;;;;;;;-140.05;100.00;61859.38;5013477;28;20190;-67
2021/08/01 04:38:31;;;;;;;21.13;12.83;;;;;;;-140.05;100.00;61859.38;5027612;28;20697;-67
2021/08/01 04:40:57;;;;;;;17.37;12.33;;;;;;;-140.05;100.00;61859.38;5021650;28;20208;-67
2021/08/01 04:43:24;;;;;;;16.80;12.20;;;;;;;-140.05;100.00;61859.38;5032914;28;20232;-67
2021/08/01 04:45:51;;;;;;;21.00;12.77;;;;;;;-140.05;100.00;61859.38;5018791;28;20197;-68
2021/08/01 04:48:18;;;;;;;19.10;13.37;;;;;;;-140.05;100.00;61859.38;5029362;28;20194;-66
2021/08/01 04:50:45;;;;;;;16.17;12.23;;;;;;;-140.05;100.00;61859.38;5031804;28;20263;-66
2021/08/01 04:53:12;;;;;;;16.30;12.70;;;;;;;-140.05;100.00;61859.38;5027401;28;20301;-66
2021/08/01 04:55:40;;;;;;;20.03;12.50;;;;;;;-140.05;100.00;61859.38;5026605;28;20671;-70
2021/08/01 04:58:07;;;;;;;21.93;14.10;;;;;;;-140.05;100.00;61859.38;5028463;28;20202;-67
2021/08/01 05:00:35;;;;;;;22.53;14.77;;;;;;;-140.05;100.00;61859.38;5024267;28;20296;-67
2021/08/01 05:03:02;;;;;;;17.40;14.00;;;;;;;-140.05;100.00;61859.38;5032796;28;20294;-67
2021/08/01 05:05:38;;;;;;;15.10;12.77;;;;;;;-140.05;100.00;61859.38;5023103;28;20205;-66
2021/08/01 05:08:06;;;;;;;22.33;14.40;;;;;;;-140.05;100.00;61859.38;5030019;28;20185;-67
2021/08/01 05:10:33;;;;;;;21.97;14.03;;;;;;;-140.05;100.00;61859.38;5023454;28;20201;-67
2021/08/01 05:13:05;;;;;;;22.17;16.07;;;;;;;-140.05;100.00;61859.38;5014113;28;20213;-68
2021/08/01 05:15:32;;;;;;;27.40;14.83;;;;;;;-140.05;100.00;61859.38;5023279;28;20272;-67
2021/08/01 05:17:59;;;;;;;25.27;15.43;;;;;;;-140.05;100.00;61859.38;5013476;28;20194;-67
2021/08/01 05:20:25;;;;;;;21.30;14.90;;;;;;;-140.05;100.00;61859.38;5035675;28;20211;-69
2021/08/01 05:22:52;;;;;;;20.37;15.33;;;;;;;-140.05;100.00;61859.38;5025421;28;20193;-66
2021/08/01 05:25:19;;;;;;;20.00;15.10;;;;;;;-140.05;100.00;61859.38;5038232;28;20208;-68
2021/08/01 05:27:46;;;;;;;22.13;15.00;;;;;;;-140.05;100.00;61859.38;5025910;28;20622;-68
2021/08/01 05:30:14;;;;;;;25.63;15.90;;;;;;;-140.05;100.00;61859.38;5015941;28;20289;-67
2021/08/01 05:32:41;;;;;;;23.73;15.50;;;;;;;-140.05;100.00;61859.38;5015689;28;20229;-68
2021/08/01 05:35:08;;;;;;;19.87;13.40;;;;;;;-140.05;100.00;61859.38;5032041;28;20694;-66
2021/08/01 05:37:35;;;;;;;18.97;15.87;;;;;;;-140.05;100.00;61859.38;5036548;28;20195;-67
2021/08/01 05:40:03;;;;;;;21.43;15.40;;;;;;;-140.05;100.00;61859.38;5031842;28;20235;-67
2021/08/01 05:42:32;;;;;;;19.50;15.90;;;;;;;-140.05;100.00;61859.38;5032177;28;20616;-66
2021/08/01 05:45:00;;;;;;;23.10;16.77;;;;;;;-140.05;100.00;61859.38;5031582;28;20201;-69
2021/08/01 05:47:27;;;;;;;23.07;16.83;;;;;;;-140.05;100.00;61859.38;5017956;28;20613;-67
2021/08/01 05:49:54;;;;;;;25.20;17.00;;;;;;;-140.05;100.00;61859.38;5031692;28;20217;-69
2021/08/01 05:52:21;;;;;;;22.80;16.03;;;;;;;-140.05;100.00;61859.38;5030530;28;20205;-66
2021/08/01 05:54:47;;;;;;;28.97;17.60;;;;;;;-140.05;100.00;61859.38;5026003;28;20275;-66
2021/08/01 05:57:14;;;;;;;23.37;17.23;;;;;;;-140.05;100.00;61859.38;5012473;28;20228;-67
2021/08/01 05:59:41;;;;;;;28.80;16.90;;;;;;;-140.05;100.00;61859.38;5015266;28;20227;-66
2021/08/01 06:02:11;;;;;;;25.10;17.47;;;;;;;-140.05;100.00;61859.38;5031893;28;20219;-67
2021/08/01 06:04:38;;;;;;;25.83;17.60;;;;;;;-140.05;100.00;61859.38;5030792;28;20208;-67
2021/08/01 06:07:08;;;;;;;25.97;17.97;;;;;;;-140.05;100.00;61859.38;5032200;28;20213;-67
2021/08/01 06:09:38;;;;;;;20.33;16.77;;;;;;;-140.05;100.00;61859.38;5030954;28;20672;-67
2021/08/01 06:12:10;;;;;;;30.27;17.13;;;;;;;-140.05;100.00;61859.38;5031394;28;20200;-67
2021/08/01 06:14:37;;;;;;;26.23;16.87;;;;;;;-140.05;100.00;61859.38;5030880;28;20686;-66
2021/08/01 06:17:04;;;;;;;25.33;15.97;;;;;;;-140.05;100.00;61859.38;5031602;28;20216;-68
2021/08/01 06:19:32;;;;;;;23.37;16.17;;;;;;;-140.05;100.00;61859.38;5016939;28;20699;-66
2021/08/01 06:21:59;;;;;;;21.60;15.60;;;;;;;-140.05;100.00;61859.38;5031314;28;20220;-68
2021/08/01 06:24:26;;;;;;;27.27;16.13;;;;;;;-140.05;100.00;61859.38;5031846;28;20213;-67
2021/08/01 06:26:52;;;;;;;23.63;15.87;;;;;;;-140.05;100.00;61859.38;5030928;28;20212;-68
2021/08/01 06:29:19;;;;;;;20.50;15.30;;;;;;;-140.05;100.00;61859.38;5021475;28;20216;-66
2021/08/01 06:31:46;;;;;;;18.60;14.90;;;;;;;-140.05;100.00;61859.38;5025491;28;20237;-68
2021/08/01 06:34:13;;;;;;;23.40;16.40;;;;;;;-140.05;100.00;61859.38;5020329;28;20267;-68
2021/08/01 06:36:40;;;;;;;23.33;16.70;;;;;;;-140.05;100.00;61859.38;5029861;28;20577;-67
2021/08/01 06:39:10;;;;;;;22.73;15.17;;;;;;;-140.05;100.00;61859.38;5017812;28;20687;-67
2021/08/01 06:41:37;;;;;;;18.40;15.67;;;;;;;-140.05;100.00;61859.38;5030956;28;20673;-67
2021/08/01 06:44:04;;;;;;;22.53;15.63;;;;;;;-140.05;100.00;61859.38;5026581;28;20277;-67
2021/08/01 06:46:31;;;;;;;24.10;16.37;;;;;;;-140.05;100.00;61859.38;5024772;28;20240;-68
2021/08/01 06:48:58;;;;;;;22.10;15.27;;;;;;;-140.05;100.00;61859.38;5028179;28;20228;-67
2021/08/01 06:51:25;;;;;;;25.73;16.07;;;;;;;-140.05;100.00;61859.38;5030375;28;20185;-67
2021/08/01 06:53:52;;;;;;;21.67;15.57;;;;;;;-140.05;100.00;61859.38;5030767;28;20242;-66
2021/08/01 06:56:20;;;;;;;24.87;16.40;;;;;;;-140.05;100.00;61859.38;5030014;28;20227;-70
2021/08/01 06:58:47;;;;;;;19.27;15.10;;;;;;;-140.05;100.00;61859.38;5030650;28;20671;-67
2021/08/01 07:01:14;;;;;;;18.60;15.60;;;;;;;-140.05;100.00;61859.38;5030451;28;20236;-67
2021/08/01 07:03:41;;;;;;;18.17;13.93;;;;;;;-140.05;100.00;61859.38;5030309;28;20205;-69
2021/08/01 07:06:10;;;;;;;21.90;14.37;;;;;;;-140.05;100.00;61859.38;5029838;28;20223;-67
2021/08/01 07:08:37;;;;;;;22.17;14.23;;;;;;;-140.05;100.00;61859.38;5030803;28;20204;-67
2021/08/01 07:11:04;;;;;;;20.77;13.80;;;;;;;-140.05;100.00;61859.38;5030261;28;20681;-67
2021/08/01 07:13:31;;;;;;;20.43;14.13;;;;;;;-140.05;100.00;61859.38;5029983;28;20244;-68
2021/08/01 07:16:04;;;;;;;19.50;13.40;;;;;;;-140.05;100.00;61859.38;5030154;28;20185;-67
2021/08/01 07:18:32;;;;;;;26.93;14.13;;;;;;;-140.05;100.00;61859.38;5030112;28;20197;-66
2021/08/01 07:21:00;;;;;;;20.07;14.40;;;;;;;-140.05;100.00;61859.38;5029967;28;20201;-67
2021/08/01 07:23:29;;;;;;;19.57;13.67;;;;;;;-140.05;100.00;61859.38;5029958;28;20582;-67
2021/08/01 07:25:56;;;;;;;21.50;13.93;;;;;;;-140.05;100.00;61859.38;5029759;28;20201;-67
2021/08/01 07:28:24;;;;;;;18.53;15.07;;;;;;;-140.05;100.00;61859.38;5030066;28;20600;-66
2021/08/01 07:30:51;;;;;;;19.57;14.47;;;;;;;-140.05;100.00;61859.38;5029804;28;20387;-67
2021/08/01 07:33:23;;;;;;;18.53;14.50;;;;;;;-140.05;100.00;61859.38;5028515;28;20189;-67
2021/08/01 07:35:50;;;;;;;21.87;15.23;;;;;;;-140.05;100.00;61859.38;5029959;28;20200;-67
2021/08/01 07:38:17;;;;;;;20.50;16.13;;;;;;;-140.05;100.00;61859.38;5029993;28;20653;-67
2021/08/01 07:40:44;;;;;;;22.73;15.37;;;;;;;-140.05;100.00;61859.38;5029481;28;20200;-67
2021/08/01 07:43:11;;;;;;;18.13;13.07;;;;;;;-140.05;100.00;61859.38;5030649;28;20232;-67
2021/08/01 07:45:39;;;;;;;23.10;13.83;;;;;;;-140.05;100.00;61859.38;5017468;28;20304;-66
2021/08/01 07:48:06;;;;;;;27.93;13.57;;;;;;;-140.05;100.00;61859.38;5031955;28;20228;-67
2021/08/01 07:50:33;;;;;;;20.13;13.60;;;;;;;-140.05;100.00;61859.38;5029563;28;20193;-67
2021/08/01 07:53:00;;;;;;;20.77;12.67;;;;;;;-140.05;100.00;61859.38;5024938;28;20268;-67
2021/08/01 07:55:26;;;;;;;19.50;13.47;;;;;;;-140.05;100.00;61859.38;5020755;28;20189;-67
2021/08/01 07:57:55;;;;;;;20.27;13.53;;;;;;;-140.05;100.00;61859.38;5029751;28;20209;-67
2021/08/01 08:00:22;;;;;;;15.90;13.90;;;;;;;-140.05;100.00;61859.38;5029276;28;20250;-67
2021/08/01 08:02:49;;;;;;;19.33;13.47;;;;;;;-140.05;100.00;61859.38;5029953;28;20671;-67
2021/08/01 08:05:16;;;;;;;21.70;14.17;;;;;;;-140.05;100.00;61859.38;5029697;28;20189;-66
2021/08/01 08:07:44;;;;;;;24.70;13.40;;;;;;;-140.05;100.00;61859.38;5030002;28;20221;-68
2021/08/01 08:10:11;;;;;;;21.87;14.87;;;;;;;-140.05;100.00;61859.38;5029145;28;20197;-66
2021/08/01 08:12:39;;;;;;;20.90;14.33;;;;;;;-140.05;100.00;61859.38;5029906;28;20733;-67
2021/08/01 08:15:08;;;;;;;17.83;11.60;;;;;;;-140.05;100.00;61859.38;5015091;28;20741;-67
2021/08/01 08:17:36;;;;;;;18.57;11.53;;;;;;;-140.05;100.00;61859.38;5018702;28;20695;-67
2021/08/01 08:20:06;;;;;;;21.87;13.60;;;;;;;-140.05;100.00;61859.38;5026476;28;20567;-67
2021/08/01 08:22:34;;;;;;;21.50;14.40;;;;;;;-140.05;100.00;61859.38;5029854;28;20193;-68
2021/08/01 08:25:04;;;;;;;20.03;11.37;;;;;;;-140.05;100.00;61859.38;5029047;28;20221;-67
2021/08/01 08:27:31;;;;;;;17.73;11.70;;;;;;;-140.05;100.00;61859.38;5029699;28;20220;-67
2021/08/01 08:29:58;;;;;;;19.27;12.50;;;;;;;-140.05;100.00;61859.38;5028535;28;20204;-68
2021/08/01 08:32:25;;;;;;;18.80;13.77;;;;;;;-140.05;100.00;61859.38;5022349;28;20190;-67
2021/08/01 08:34:51;;;;;;;16.93;12.87;;;;;;;-140.05;100.00;61859.38;5009618;28;20190;-67
2021/08/01 08:37:19;;;;;;;20.97;13.60;;;;;;;-140.05;100.00;61859.38;5029648;28;20229;-67
2021/08/01 08:42:31;;;;;;;18.37;11.40;;;;;;;-140.05;100.00;61859.38;5029439;28;20221;-67
2021/08/01 08:45:00;;;;;;;18.53;12.90;;;;;;;-140.05;100.00;61859.38;5028878;28;20205;-68
2021/08/01 08:47:28;;;;;;;17.37;11.87;;;;;;;-140.05;100.00;61859.38;5025568;28;20222;-68
2021/08/01 08:49:57;;;;;;;17.90;12.00;;;;;;;-140.05;100.00;61859.38;5029288;28;20193;-67
2021/08/01 08:52:25;;;;;;;17.50;11.73;;;;;;;-140.05;100.00;61859.38;5033439;28;20209;-67
2021/08/01 08:54:59;;;;;;;20.33;12.33;;;;;;;-140.05;100.00;61859.38;5033052;28;20198;-67
2021/08/01 08:57:38;;;;;;;14.77;10.83;;;;;;;-140.05;100.00;61859.38;5033432;28;20219;-67
2021/08/01 09:00:07;;;;;;;16.70;12.07;;;;;;;-140.05;100.00;61859.38;5034579;28;20276;-67
2021/08/01 09:02:34;;;;;;;13.73;11.47;;;;;;;-140.05;100.00;61859.38;5037322;28;20192;-66
2021/08/01 09:05:04;;;;;;;22.47;11.47;;;;;;;-140.05;100.00;61859.38;5016865;28;20267;-67
2021/08/01 09:07:31;;;;;;;19.73;11.10;;;;;;;-140.05;100.00;61859.38;5029385;28;20255;-67
2021/08/01 09:09:58;;;;;;;14.67;10.73;;;;;;;-140.05;100.00;61859.38;5014238;28;20301;-67
2021/08/01 09:12:25;;;;;;;18.97;11.73;;;;;;;-140.05;100.00;61859.38;5023980;28;20198;-67
2021/08/01 09:15:13;;;;;;;18.80;12.10;;;;;;;-140.05;100.00;61859.38;5015173;28;21043;-66
2021/08/01 09:17:41;;;;;;;19.60;11.33;;;;;;;-140.05;100.00;61859.38;5025601;28;20710;-67
2021/08/01 09:20:21;;;;;;;14.50;11.63;;;;;;;-140.05;100.00;61859.38;5032198;28;20673;-67
2021/08/01 09:23:01;;;;;;;14.43;10.10;;;;;;;-140.05;100.00;61859.38;5020624;28;20621;-66
2021/08/01 09:25:32;;;;;;;15.03;10.73;;;;;;;-140.05;100.00;61859.38;5012564;28;20217;-65
2021/08/01 09:28:06;;;;;;;16.07;11.60;;;;;;;-140.05;100.00;61859.38;5025973;28;20695;-69
2021/08/01 09:30:59;;;;;;;16.33;11.77;;;;;;;-140.05;100.00;61859.38;5018321;28;20308;-68
2021/08/01 09:33:37;;;;;;;14.17;10.50;;;;;;;-140.05;100.00;61859.38;5030165;28;20292;-68
2021/08/01 09:36:13;;;;;;;12.47;10.30;;;;;;;-140.05;100.00;61859.38;5012160;28;20194;-68
2021/08/01 09:38:45;;;;;;;17.43;10.83;;;;;;;-140.05;100.00;61859.38;5012392;28;20189;-67
2021/08/01 09:41:16;;;;;;;18.17;10.93;;;;;;;-140.05;100.00;61859.38;5021829;28;20221;-67
2021/08/01 09:43:55;;;;;;;16.67;12.23;;;;;;;-140.05;100.00;61859.38;5031987;28;20235;-67
2021/08/01 09:46:43;;;;;;;24.57;18.53;;;;;;;-140.05;100.00;61859.38;5031729;28;20229;-67
2021/08/01 09:49:19;;;;;;;17.43;13.30;;;;;;;-140.05;100.00;61859.38;5031639;28;20229;-68
2021/08/01 09:51:54;;;;;;;18.17;13.57;;;;;;;-140.05;100.00;61859.38;5031281;28;20198;-67
2021/08/01 09:54:26;;;;;;;20.10;14.17;;;;;;;-140.05;100.00;61859.38;5029055;28;20209;-67
2021/08/01 09:56:56;;;;;;;23.63;13.97;;;;;;;-140.05;100.00;61859.38;5031453;28;20209;-67
2021/08/01 09:59:25;;;;;;;20.40;14.60;;;;;;;-140.05;100.00;61859.38;5029324;28;20676;-69
2021/08/01 10:01:54;;;;;;;20.77;14.97;;;;;;;-140.05;100.00;61859.38;5017949;28;20209;-67
2021/08/01 10:04:27;;;;;;;23.60;15.27;;;;;;;-140.05;100.00;61859.38;5031075;28;20232;-68
2021/08/01 10:07:07;;;;;;;19.23;12.30;;;;;;;-140.05;100.00;61859.38;5018778;28;20236;-68
2021/08/01 10:09:35;;;;;;;14.07;10.53;;;;;;;-140.05;100.00;61859.38;5031467;28;20623;-67
2021/08/01 10:12:04;;;;;;;16.50;10.27;;;;;;;-140.05;100.00;61859.38;5031624;28;20670;-70
2021/08/01 10:14:31;;;;;;;13.77;10.63;;;;;;;-140.05;100.00;61859.38;5017497;28;20212;-67
2021/08/01 10:16:59;;;;;;;14.83;10.63;;;;;;;-140.05;100.00;61859.38;5017914;28;20200;-67
2021/08/01 10:19:26;;;;;;;17.90;11.00;;;;;;;-140.05;100.00;61859.38;5019489;28;20201;-69
2021/08/01 10:21:57;;;;;;;15.30;9.90;;;;;;;-140.05;100.00;61859.38;5029665;28;20189;-67
2021/08/01 10:24:26;;;;;;;15.57;9.63;;;;;;;-140.05;100.00;61859.38;5031636;28;20294;-69
2021/08/01 10:26:56;;;;;;;18.83;10.07;;;;;;;-140.05;100.00;61859.38;5030618;28;20189;-67
2021/08/01 10:29:32;;;;;;;14.80;9.53;;;;;;;-140.05;100.00;61859.38;5031471;28;20219;-68
2021/08/01 10:32:06;;;;;;;11.93;8.50;;;;;;;-140.05;100.00;61859.38;5031173;28;20200;-67
2021/08/01 10:34:51;;;;;;;18.37;9.73;;;;;;;-140.05;100.00;61859.38;5020014;28;20364;-67
2021/08/01 10:37:25;;;;;;;17.57;9.63;;;;;;;-140.05;100.00;61859.38;5025177;28;20587;-67
2021/08/01 10:39:53;;;;;;;14.57;9.27;;;;;;;-140.05;100.00;61859.38;5011265;28;20308;-68
2021/08/01 10:42:24;;;;;;;15.83;9.97;;;;;;;-140.05;100.00;61859.38;5015979;28;20221;-68
2021/08/01 10:44:53;;;;;;;13.27;8.87;;;;;;;-140.05;100.00;61859.38;5030749;28;20208;-68
2021/08/01 10:47:22;;;;;;;16.70;9.77;;;;;;;-140.05;100.00;61859.38;5027148;28;20202;-68
2021/08/01 10:49:49;;;;;;;19.50;9.43;;;;;;;-140.05;100.00;61859.38;5030369;28;20193;-67
2021/08/01 10:52:18;;;;;;;18.97;9.63;;;;;;;-140.05;100.00;61859.38;5030505;28;20197;-67
2021/08/01 10:54:55;;;;;;;18.23;8.80;;;;;;;-140.05;100.00;61859.38;5030420;28;20216;-67
2021/08/01 10:57:23;;;;;;;14.93;9.60;;;;;;;-140.05;100.00;61859.38;5018540;28;20217;-66
2021/08/01 10:59:50;;;;;;;15.40;9.30;;;;;;;-140.05;100.00;61859.38;5024325;28;20197;-67
2021/08/01 11:02:21;;;;;;;14.93;10.13;;;;;;;-140.05;100.00;61859.38;5011130;28;20194;-67
2021/08/01 11:04:51;;;;;;;14.23;9.00;;;;;;;-140.05;100.00;61859.38;5010212;28;20268;-68
2021/08/01 11:07:27;;;;;;;15.93;9.73;;;;;;;-140.05;100.00;61859.38;5021350;28;20205;-67
2021/08/01 11:10:06;;;;;;;14.17;9.60;;;;;;;-140.05;100.00;61859.38;5030558;28;20292;-67
2021/08/01 11:12:45;;;;;;;12.80;10.00;;;;;;;-140.05;100.00;61859.38;5030542;28;20204;-66
2021/08/01 11:15:16;;;;;;;15.77;9.60;;;;;;;-140.05;100.00;61859.38;5029752;28;20212;-67